Time;durP1;ratioP1;P1;durP2;ratioP2;P2;SDS_P1;SDS_P2;PMS_P1;PMS_P2;Temp;Humidity;BMP_temperature;BMP_pressure;BME280_temperature;BME280_humidity;BME280_pressure;Samples;Min_cycle;Max_cycle;Signal;HPM_P1;HPM_P2
2023/05/08 00:01:39;;;;;;;5.45;3.25;;;;;;;20.47;58.64;101950.84;4948848;28;20031;-68
2023/05/08 00:04:04;;;;;;;5.05;3.10;;;;;;;20.47;58.53;101957.91;4960885;28;20468;-69
2023/05/08 00:06:29;;;;;;;4.90;3.10;;;;;;;20.46;58.74;101956.25;4948800;28;20057;-68
2023/05/08 00:08:55;;;;;;;4.20;2.80;;;;;;;20.45;58.42;101960.69;4951193;28;20364;-67
2023/05/08 00:11:20;;;;;;;4.68;3.03;;;;;;;20.46;58.51;101967.69;4954136;28;20274;-69
2023/05/08 00:13:45;;;;;;;4.65;3.28;;;;;;;20.46;58.53;101969.50;4956907;28;20138;-69
2023/05/08 00:16:11;;;;;;;3.78;2.60;;;;;;;20.46;58.66;101965.03;4950996;28;20598;-69
2023/05/08 00:18:38;;;;;;;3.95;2.67;;;;;;;20.42;58.45;101960.91;4944487;28;20384;-68
2023/05/08 00:21:06;;;;;;;4.30;2.75;;;;;;;20.43;58.55;101953.81;4945354;28;20055;-68
2023/05/08 00:23:32;;;;;;;4.75;3.15;;;;;;;20.42;58.42;101954.78;4945031;28;20472;-68
2023/05/08 00:25:57;;;;;;;4.05;2.72;;;;;;;20.44;58.42;101959.00;4945179;28;20058;-67
2023/05/08 00:28:22;;;;;;;4.65;2.67;;;;;;;20.42;58.55;101947.66;4945105;28;20054;-68
2023/05/08 00:30:48;;;;;;;4.10;2.85;;;;;;;20.42;58.35;101952.97;4964157;28;20038;-68
2023/05/08 00:33:13;;;;;;;4.35;3.00;;;;;;;20.42;58.36;101960.91;4964031;28;20482;-68
2023/05/08 00:35:41;;;;;;;5.50;3.20;;;;;;;20.43;58.40;101956.47;4951486;28;20039;-69
2023/05/08 00:38:06;;;;;;;4.15;3.03;;;;;;;20.41;58.24;101964.53;4944706;28;20360;-68
2023/05/08 00:40:31;;;;;;;5.00;3.00;;;;;;;20.42;58.21;101960.06;4959538;28;20117;-68
2023/05/08 00:42:57;;;;;;;5.45;3.08;;;;;;;20.41;58.25;101958.38;4952985;28;20480;-68
2023/05/08 00:45:22;;;;;;;4.57;3.13;;;;;;;20.42;58.30;101955.59;4964145;28;20129;-69
2023/05/08 00:47:49;;;;;;;4.15;2.83;;;;;;;20.41;57.94;101947.78;4962126;28;20272;-69
2023/05/08 00:50:14;;;;;;;5.97;3.08;;;;;;;20.40;58.09;101954.88;4960159;28;20031;-68
2023/05/08 00:52:40;;;;;;;7.35;3.10;;;;;;;20.40;58.30;101952.25;4963120;28;20029;-69
2023/05/08 00:55:06;;;;;;;4.90;3.42;;;;;;;20.39;58.23;101950.53;4992975;28;20536;-68
2023/05/08 00:57:35;;;;;;;4.88;3.22;;;;;;;20.38;58.18;101943.56;4953649;28;20034;-68
2023/05/08 01:00:03;;;;;;;4.97;2.83;;;;;;;20.37;58.48;101944.53;4944766;28;20031;-68
2023/05/08 01:02:32;;;;;;;4.35;3.30;;;;;;;20.37;58.24;101941.88;4961001;28;20026;-68
2023/05/08 01:04:57;;;;;;;4.78;3.20;;;;;;;20.37;58.14;101941.88;4945041;28;20046;-68
2023/05/08 01:07:23;;;;;;;4.53;3.15;;;;;;;20.37;58.17;101943.69;4944442;28;20043;-68
2023/05/08 01:09:48;;;;;;;4.45;3.08;;;;;;;20.37;58.19;101944.53;4954370;28;20034;-68
2023/05/08 01:12:22;;;;;;;5.30;3.05;;;;;;;20.30;58.10;101941.47;4963665;28;20487;-69
2023/05/08 01:15:10;;;;;;;4.53;3.13;;;;;;;20.37;58.19;101946.34;4963963;28;20042;-68
2023/05/08 01:17:45;;;;;;;4.47;3.03;;;;;;;20.36;58.25;101949.94;4983245;28;20535;-67
2023/05/08 01:20:31;;;;;;;4.43;3.00;;;;;;;20.36;58.31;101950.78;4962934;28;20483;-69
2023/05/08 01:23:15;;;;;;;4.72;3.13;;;;;;;20.36;58.19;101941.97;4963378;28;20034;-68
2023/05/08 01:26:30;;;;;;;4.75;3.00;;;;;;;20.27;58.15;101930.28;4963123;28;20443;-68
2023/05/08 01:29:17;;;;;;;5.82;3.30;;;;;;;20.35;58.02;101940.31;4959709;28;21244;-69
2023/05/08 01:32:09;;;;;;;4.63;3.17;;;;;;;20.36;57.93;101939.34;4952486;28;20035;-69
2023/05/08 01:34:45;;;;;;;4.80;3.17;;;;;;;20.29;58.30;101938.94;4980096;28;20055;-69
2023/05/08 01:37:15;;;;;;;4.07;2.90;;;;;;;20.33;57.95;101945.72;4954958;28;20498;-68
2023/05/08 01:40:01;;;;;;;4.53;3.25;;;;;;;20.32;57.98;101943.19;4952189;28;20039;-68
2023/05/08 01:42:46;;;;;;;5.18;3.05;;;;;;;20.30;57.99;101944.13;4954066;28;20740;-69
2023/05/08 01:45:21;;;;;;;4.65;3.40;;;;;;;20.32;58.06;101946.66;4956839;28;20122;-69
2023/05/08 01:47:55;;;;;;;4.55;3.05;;;;;;;20.29;58.02;101941.59;4956742;28;20031;-69
2023/05/08 01:50:29;;;;;;;4.25;3.15;;;;;;;20.29;58.16;101942.44;4953576;28;20039;-67
2023/05/08 01:53:04;;;;;;;5.03;3.10;;;;;;;20.32;57.89;101948.47;4947313;28;20102;-68
2023/05/08 01:55:34;;;;;;;7.57;3.38;;;;;;;20.32;57.99;101944.03;4952351;28;20097;-69
2023/05/08 01:58:03;;;;;;;5.65;3.20;;;;;;;20.28;57.85;101942.53;4951063;28;20093;-69
2023/05/08 02:00:28;;;;;;;4.63;3.20;;;;;;;20.30;57.83;101943.28;4954039;28;20362;-68
2023/05/08 02:02:54;;;;;;;4.47;2.90;;;;;;;20.29;57.91;101950.38;4944400;28;20078;-68
2023/05/08 02:05:21;;;;;;;4.80;3.50;;;;;;;20.29;57.97;101950.38;4952500;28;20626;-68
2023/05/08 02:07:48;;;;;;;4.60;3.22;;;;;;;20.29;57.91;101950.38;4961311;28;20042;-68
2023/05/08 02:10:15;;;;;;;5.10;3.25;;;;;;;20.28;57.71;101948.69;4953718;28;20452;-69
2023/05/08 02:12:42;;;;;;;4.35;3.00;;;;;;;20.28;57.67;101947.84;4951290;28;20757;-68
2023/05/08 02:15:09;;;;;;;4.00;2.83;;;;;;;20.28;57.94;101955.78;4950606;28;20122;-68
2023/05/08 02:17:38;;;;;;;5.25;3.13;;;;;;;20.25;57.98;101954.22;4951800;28;20121;-68
2023/05/08 02:20:06;;;;;;;4.15;3.05;;;;;;;20.28;57.94;101953.13;4950634;28;20043;-68
2023/05/08 02:22:32;;;;;;;4.13;2.92;;;;;;;20.28;57.91;101959.28;4952613;28;20035;-67
2023/05/08 02:24:57;;;;;;;4.55;3.17;;;;;;;20.28;57.83;101958.44;4957416;28;20059;-67
2023/05/08 02:27:26;;;;;;;4.50;3.40;;;;;;;20.27;57.50;101959.41;4960916;28;20484;-67
2023/05/08 02:29:52;;;;;;;4.18;2.60;;;;;;;20.28;57.80;101963.72;4981758;28;20037;-67
2023/05/08 02:32:19;;;;;;;4.32;3.20;;;;;;;20.27;57.78;101962.03;4988869;28;20369;-69
2023/05/08 02:34:47;;;;;;;6.03;3.08;;;;;;;20.26;57.66;101957.69;4947232;28;20031;-68
2023/05/08 02:37:15;;;;;;;5.75;3.30;;;;;;;20.25;57.57;101958.66;4946343;28;20058;-69
2023/05/08 02:39:43;;;;;;;4.53;3.08;;;;;;;20.26;57.66;101961.19;4943020;28;20039;-68
2023/05/08 02:42:08;;;;;;;4.50;3.45;;;;;;;20.24;57.80;101965.75;4956566;28;20027;-68
2023/05/08 02:44:34;;;;;;;4.65;3.38;;;;;;;20.23;57.61;101958.75;4962073;28;20095;-69
2023/05/08 02:47:09;;;;;;;5.53;3.30;;;;;;;20.24;57.92;101956.97;4952953;28;20464;-68
2023/05/08 02:49:49;;;;;;;4.95;3.38;;;;;;;20.25;57.82;101961.28;4958285;28;20043;-68
2023/05/08 02:52:23;;;;;;;4.70;3.35;;;;;;;20.25;57.57;101961.28;4951466;28;20039;-70
2023/05/08 02:55:14;;;;;;;4.70;3.17;;;;;;;20.24;57.60;101955.16;4953762;28;20039;-67
2023/05/08 02:57:45;;;;;;;4.95;3.40;;;;;;;20.25;57.57;101964.81;4957351;28;20039;-68
2023/05/08 03:00:21;;;;;;;4.60;3.40;;;;;;;20.24;57.47;101955.16;4951171;28;20037;-68
2023/05/08 03:02:58;;;;;;;4.70;3.03;;;;;;;20.24;57.62;101946.38;4952264;28;20152;-69
2023/05/08 03:05:33;;;;;;;4.53;3.30;;;;;;;20.23;57.68;101950.81;4955329;28;20566;-68
2023/05/08 03:08:15;;;;;;;4.97;3.40;;;;;;;20.21;57.19;101951.91;4954681;28;20082;-68
2023/05/08 03:10:44;;;;;;;5.40;3.35;;;;;;;20.24;57.59;101956.97;4957583;28;20092;-68
2023/05/08 03:13:11;;;;;;;4.70;3.63;;;;;;;20.21;57.47;101951.91;4964926;28;20154;-70
2023/05/08 03:15:46;;;;;;;4.28;3.20;;;;;;;20.22;57.50;101950.94;4992435;28;20423;-68
2023/05/08 03:18:18;;;;;;;5.03;3.30;;;;;;;20.22;57.50;101956.22;4954020;28;20046;-70
2023/05/08 03:20:47;;;;;;;5.05;3.80;;;;;;;20.21;57.49;101947.44;4960870;28;20472;-68
2023/05/08 03:23:15;;;;;;;5.28;3.53;;;;;;;20.18;57.44;101942.38;4956194;28;20035;-68
2023/05/08 03:25:42;;;;;;;5.38;3.55;;;;;;;20.21;57.42;101946.59;4945832;28;20415;-67
2023/05/08 03:28:09;;;;;;;4.95;3.63;;;;;;;20.21;57.43;101947.44;4946206;28;20070;-68
2023/05/08 03:30:36;;;;;;;4.53;3.42;;;;;;;20.19;57.45;101953.81;4949027;28;20039;-68
2023/05/08 03:33:04;;;;;;;5.30;3.83;;;;;;;20.20;57.38;101958.13;4947456;28;20039;-69
2023/05/08 03:35:30;;;;;;;5.40;4.03;;;;;;;20.21;57.46;101951.91;4962553;28;20472;-67
2023/05/08 03:37:56;;;;;;;7.13;4.07;;;;;;;20.19;57.37;101945.88;4946118;28;20039;-68
2023/05/08 03:40:21;;;;;;;5.13;3.47;;;;;;;20.20;57.17;101944.91;4952360;28;20039;-68
2023/05/08 03:42:47;;;;;;;5.25;3.70;;;;;;;20.20;57.29;101944.91;4950874;28;20523;-68
2023/05/08 03:45:13;;;;;;;5.18;3.80;;;;;;;20.18;57.33;101950.31;4959556;28;20035;-67
2023/05/08 03:47:39;;;;;;;4.75;3.47;;;;;;;20.17;57.34;101942.47;4965214;28;20561;-68
2023/05/08 03:50:07;;;;;;;5.72;3.63;;;;;;;20.18;57.32;101938.88;4949285;28;20086;-67
2023/05/08 03:52:33;;;;;;;5.35;3.58;;;;;;;20.16;57.27;101939.00;4945660;28;20935;-69
2023/05/08 03:55:00;;;;;;;5.32;3.78;;;;;;;20.16;57.10;101939.00;4945603;28;20138;-68
2023/05/08 03:57:29;;;;;;;5.13;3.58;;;;;;;20.15;57.12;101945.25;4957836;28;20030;-68
2023/05/08 04:00:08;;;;;;;4.93;3.78;;;;;;;20.14;57.12;101937.41;4960378;28;20043;-68
2023/05/08 04:02:39;;;;;;;4.93;3.63;;;;;;;20.17;57.08;101948.66;4962578;28;20035;-70
2023/05/08 04:05:30;;;;;;;6.43;3.92;;;;;;;20.16;57.37;101946.09;4947961;28;20114;-69
2023/05/08 04:08:08;;;;;;;4.78;3.50;;;;;;;20.16;57.13;101946.94;4977884;28;20122;-68
2023/05/08 04:10:47;;;;;;;5.72;3.55;;;;;;;20.14;57.12;101948.88;4954650;28;20039;-68
2023/05/08 04:13:17;;;;;;;4.55;3.53;;;;;;;20.18;57.24;101952.13;4955059;28;20050;-68
2023/05/08 04:16:10;;;;;;;5.00;3.95;;;;;;;20.16;57.09;101954.03;4949897;28;20629;-68
2023/05/08 04:18:41;;;;;;;5.18;3.50;;;;;;;20.14;57.10;101951.50;4949242;28;20111;-69
2023/05/08 04:21:09;;;;;;;5.43;3.80;;;;;;;20.17;57.16;101955.72;4948297;28;20050;-68
2023/05/08 04:23:37;;;;;;;4.85;3.30;;;;;;;20.15;56.98;101957.63;4960494;28;20106;-68
2023/05/08 04:26:04;;;;;;;4.63;3.50;;;;;;;20.14;56.98;101954.16;4956759;28;20082;-69
2023/05/08 04:28:30;;;;;;;5.15;3.58;;;;;;;20.13;57.09;101959.56;4945135;28;20050;-69
2023/05/08 04:30:57;;;;;;;5.28;3.70;;;;;;;20.14;57.24;101956.81;4946895;28;20039;-69
2023/05/08 04:33:23;;;;;;;5.43;3.50;;;;;;;20.11;57.19;101957.03;4949205;28;20142;-69
2023/05/08 04:35:48;;;;;;;5.30;3.63;;;;;;;20.14;57.19;101955.94;4947684;28;20464;-68
2023/05/08 04:38:13;;;;;;;4.93;3.97;;;;;;;20.11;56.89;101957.03;4962370;28;20531;-68
2023/05/08 04:40:39;;;;;;;4.53;3.38;;;;;;;20.11;57.15;101962.31;4962993;28;20501;-68
2023/05/08 04:43:04;;;;;;;5.05;3.40;;;;;;;20.13;56.76;101970.16;4989213;28;20039;-68
2023/05/08 04:45:30;;;;;;;5.30;3.38;;;;;;;20.12;57.21;101974.56;4944841;28;20066;-69
2023/05/08 04:47:55;;;;;;;4.57;3.30;;;;;;;20.14;57.05;101975.31;4954793;28;20044;-68
2023/05/08 04:50:20;;;;;;;4.60;3.50;;;;;;;20.11;57.02;101965.78;4958112;28;20824;-69
2023/05/08 04:52:46;;;;;;;4.72;3.25;;;;;;;20.09;57.07;101970.38;4949522;28;20361;-69
2023/05/08 04:55:11;;;;;;;5.50;3.53;;;;;;;20.14;57.17;101979.75;4963304;28;20034;-69
2023/05/08 04:57:36;;;;;;;4.80;3.60;;;;;;;20.12;57.13;101985.16;4952314;28;20460;-68
2023/05/08 05:00:02;;;;;;;5.30;3.72;;;;;;;20.14;57.01;101987.69;4961947;28;20049;-68
2023/05/08 05:02:27;;;;;;;4.97;3.53;;;;;;;20.14;57.01;101985.03;4963000;28;20396;-68
2023/05/08 05:04:52;;;;;;;5.25;3.78;;;;;;;20.12;57.15;101987.81;4959787;28;20423;-68
2023/05/08 05:07:17;;;;;;;4.80;3.72;;;;;;;20.12;56.80;101993.09;4944463;28;20078;-69
2023/05/08 05:09:43;;;;;;;5.37;3.70;;;;;;;20.09;56.69;101993.31;4945456;28;20039;-68
2023/05/08 05:12:08;;;;;;;4.97;3.50;;;;;;;20.07;57.24;101989.94;4977708;28;20276;-68
2023/05/08 05:14:33;;;;;;;5.65;3.80;;;;;;;20.13;57.19;101999.25;4956238;28;20031;-68
2023/05/08 05:16:59;;;;;;;4.72;3.63;;;;;;;20.10;57.10;102000.31;4944239;28;20034;-68
2023/05/08 05:19:24;;;;;;;5.00;3.75;;;;;;;20.13;57.20;102008.03;4959478;28;20481;-68
2023/05/08 05:21:50;;;;;;;4.93;3.88;;;;;;;20.10;57.15;101998.50;4963184;28;20045;-69
2023/05/08 05:24:15;;;;;;;5.50;3.70;;;;;;;20.09;57.27;102007.41;4988297;28;20027;-68
2023/05/08 05:26:40;;;;;;;5.57;4.03;;;;;;;20.11;57.22;102013.44;4944062;28;20054;-68
2023/05/08 05:29:06;;;;;;;5.47;4.15;;;;;;;20.10;57.43;102021.47;4962035;28;20058;-68
2023/05/08 05:31:31;;;;;;;5.00;4.20;;;;;;;20.12;57.27;102016.91;4953916;28;20584;-68
2023/05/08 05:33:56;;;;;;;5.22;4.32;;;;;;;20.09;57.29;102006.53;4956918;28;20042;-68
2023/05/08 05:36:22;;;;;;;6.63;4.07;;;;;;;20.07;57.38;102009.31;4975473;28;20035;-68
2023/05/08 05:38:47;;;;;;;5.22;3.88;;;;;;;20.05;57.41;102020.97;4943811;28;20039;-68
2023/05/08 05:41:12;;;;;;;4.93;3.58;;;;;;;20.08;57.21;102020.75;4951983;28;20141;-68
2023/05/08 05:43:38;;;;;;;5.88;3.83;;;;;;;20.09;57.34;102019.78;4960922;28;20030;-68
2023/05/08 05:46:08;;;;;;;5.55;3.63;;;;;;;20.10;57.38;102021.47;4952354;28;20479;-68
2023/05/08 05:48:34;;;;;;;4.60;3.55;;;;;;;20.09;57.22;102022.44;4951437;28;20039;-68
2023/05/08 05:51:00;;;;;;;5.70;3.75;;;;;;;20.10;57.20;102022.31;4960492;28;20030;-69
2023/05/08 05:53:25;;;;;;;4.88;3.70;;;;;;;20.08;57.11;102018.94;4949165;28;20038;-69
2023/05/08 05:55:50;;;;;;;5.28;3.97;;;;;;;20.09;57.18;102019.78;4957328;28;20034;-69
2023/05/08 05:58:16;;;;;;;4.35;3.30;;;;;;;20.08;57.18;102020.75;4943230;28;20082;-69
2023/05/08 06:00:42;;;;;;;5.07;3.35;;;;;;;20.10;57.21;102030.25;4948828;28;20107;-69
2023/05/08 06:03:09;;;;;;;5.90;3.75;;;;;;;20.10;57.04;102027.59;4948784;28;20062;-70
2023/05/08 06:05:35;;;;;;;5.22;3.78;;;;;;;20.11;57.41;102026.66;4950422;28;20066;-70
2023/05/08 06:08:00;;;;;;;5.35;4.00;;;;;;;20.20;57.26;102030.47;4962292;28;20066;-70
2023/05/08 06:10:26;;;;;;;6.45;3.50;;;;;;;20.24;57.10;102031.94;4955872;28;20031;-69
2023/05/08 06:12:52;;;;;;;5.70;4.07;;;;;;;20.24;57.25;102029.28;4973871;28;20302;-71
2023/05/08 06:15:17;;;;;;;5.90;4.40;;;;;;;20.22;57.61;102032.97;4959637;28;20451;-73
2023/05/08 06:17:43;;;;;;;5.85;4.22;;;;;;;20.17;57.65;102022.75;4962544;28;20034;-71
2023/05/08 06:20:08;;;;;;;5.95;4.40;;;;;;;20.19;57.86;102031.41;4992997;28;20376;-70
2023/05/08 06:22:36;;;;;;;5.70;4.10;;;;;;;20.20;58.23;102026.97;4962192;28;20035;-70
2023/05/08 06:25:01;;;;;;;7.00;4.50;;;;;;;20.23;58.32;102034.69;4945073;28;20074;-70
2023/05/08 06:27:27;;;;;;;6.32;4.65;;;;;;;20.24;58.38;102026.63;4961667;28;20035;-70
2023/05/08 06:29:52;;;;;;;6.80;5.13;;;;;;;20.24;58.57;102025.78;4948416;28;20473;-70
2023/05/08 06:32:18;;;;;;;6.00;5.00;;;;;;;20.25;58.37;102030.13;4942920;28;20035;-72
2023/05/08 06:34:44;;;;;;;7.45;5.25;;;;;;;20.27;58.48;102031.72;4942916;28;20047;-70
2023/05/08 06:37:09;;;;;;;6.47;5.53;;;;;;;20.24;58.49;102029.28;4942949;28;20061;-69
2023/05/08 06:39:35;;;;;;;6.22;5.07;;;;;;;20.28;58.87;102033.41;4990807;28;20034;-69
2023/05/08 06:42:00;;;;;;;6.78;5.20;;;;;;;20.26;58.87;102029.16;4962313;28;20038;-70
2023/05/08 06:44:25;;;;;;;7.53;5.88;;;;;;;20.25;58.78;102033.63;4965920;28;20122;-69
2023/05/08 06:46:50;;;;;;;7.00;5.97;;;;;;;20.24;59.03;102039.03;4966084;28;20201;-68
2023/05/08 06:49:16;;;;;;;8.02;5.32;;;;;;;20.26;59.33;102040.59;4956485;28;20276;-68
2023/05/08 06:51:41;;;;;;;8.77;6.37;;;;;;;20.25;59.17;102046.00;4950187;28;20271;-70
2023/05/08 06:54:07;;;;;;;7.47;6.50;;;;;;;20.21;59.62;102050.66;4954174;28;20281;-70
2023/05/08 06:56:33;;;;;;;7.55;6.75;;;;;;;20.14;60.01;102049.44;4964050;28;20049;-68
2023/05/08 06:58:59;;;;;;;8.93;6.75;;;;;;;20.10;60.23;102040.84;4958738;28;20054;-71
2023/05/08 07:01:24;;;;;;;8.95;7.90;;;;;;;20.11;60.49;102052.28;4945830;28;20039;-70
2023/05/08 07:03:50;;;;;;;10.73;7.97;;;;;;;20.05;60.52;102042.13;4945517;28;20750;-71
2023/05/08 07:06:15;;;;;;;10.68;7.72;;;;;;;20.14;60.45;102053.84;4952560;28;20039;-67
2023/05/08 07:08:40;;;;;;;9.02;7.63;;;;;;;20.14;60.58;102056.50;4961046;28;20037;-69
2023/05/08 07:11:08;;;;;;;8.85;7.95;;;;;;;20.12;60.76;102056.59;4956848;28;20101;-70
2023/05/08 07:13:34;;;;;;;9.10;7.43;;;;;;;20.13;60.57;102054.84;4961296;28;20524;-69
2023/05/08 07:15:59;;;;;;;9.68;8.50;;;;;;;20.12;60.33;102059.25;4955294;28;20676;-70
2023/05/08 07:18:25;;;;;;;9.20;8.07;;;;;;;20.11;60.55;102055.78;4976565;28;20468;-70
2023/05/08 07:20:50;;;;;;;9.18;8.23;;;;;;;20.11;60.76;102050.47;4945352;28;20122;-68
2023/05/08 07:23:15;;;;;;;8.93;7.93;;;;;;;20.13;60.47;102049.53;4964470;28;20027;-66
2023/05/08 07:25:40;;;;;;;8.82;7.93;;;;;;;20.14;60.57;102051.22;4959726;28;20399;-68
2023/05/08 07:28:06;;;;;;;9.82;8.35;;;;;;;20.12;60.37;102056.59;4954589;28;20035;-68
2023/05/08 07:30:32;;;;;;;8.90;8.00;;;;;;;20.09;60.42;102052.41;4952241;28;20124;-70
2023/05/08 07:32:58;;;;;;;9.23;8.32;;;;;;;20.13;60.47;102049.53;4950939;28;20044;-69
2023/05/08 07:35:23;;;;;;;9.77;8.77;;;;;;;20.15;60.54;102056.41;4951431;28;20046;-69
2023/05/08 07:37:48;;;;;;;10.43;9.13;;;;;;;20.11;60.54;102053.13;4982595;28;20038;-67
2023/05/08 07:40:14;;;;;;;13.48;9.05;;;;;;;20.15;60.63;102053.75;4959159;28;20074;-69
2023/05/08 07:42:40;;;;;;;10.13;8.38;;;;;;;20.17;60.31;102049.22;4963101;28;20481;-67
2023/05/08 07:45:07;;;;;;;10.13;9.13;;;;;;;20.18;60.56;102052.69;4949781;28;20044;-69
2023/05/08 07:47:33;;;;;;;9.70;8.43;;;;;;;20.17;60.20;102049.22;4960974;28;20031;-68
2023/05/08 07:49:58;;;;;;;10.25;8.43;;;;;;;20.18;60.22;102050.88;4959511;28;20023;-70
2023/05/08 07:52:23;;;;;;;9.93;8.13;;;;;;;20.20;60.26;102048.13;4964395;28;20031;-68
2023/05/08 07:54:48;;;;;;;11.83;10.20;;;;;;;20.18;60.71;102050.88;4960490;28;20471;-68
2023/05/08 07:57:14;;;;;;;13.03;8.93;;;;;;;20.16;60.72;102041.38;4962687;28;20268;-69
2023/05/08 07:59:39;;;;;;;11.02;8.65;;;;;;;20.21;60.08;102052.47;4957040;28;20319;-68
2023/05/08 08:02:04;;;;;;;9.68;8.52;;;;;;;20.22;60.23;102047.09;4964302;28;20483;-71
2023/05/08 08:04:29;;;;;;;10.15;8.60;;;;;;;20.20;60.24;102051.66;4963603;28;20082;-68
2023/05/08 08:06:55;;;;;;;10.07;8.30;;;;;;;20.21;60.42;102049.84;4964089;28;20034;-68
2023/05/08 08:09:20;;;;;;;9.77;8.60;;;;;;;20.20;60.30;102054.28;4948039;28;20344;-69
2023/05/08 08:11:46;;;;;;;10.43;8.30;;;;;;;20.15;60.18;102043.16;4962110;28;20039;-69
2023/05/08 08:14:11;;;;;;;10.68;8.90;;;;;;;20.24;60.15;102055.75;4946238;28;20717;-69
2023/05/08 08:16:36;;;;;;;10.32;8.48;;;;;;;20.25;60.31;102052.16;4945333;28;20042;-66
2023/05/08 08:19:01;;;;;;;10.85;8.20;;;;;;;20.25;60.16;102053.94;4953947;28;20030;-69
2023/05/08 08:21:27;;;;;;;9.25;8.00;;;;;;;20.24;60.37;102057.56;4959621;28;20038;-69
2023/05/08 08:23:52;;;;;;;11.27;8.93;;;;;;;20.25;60.16;102053.94;4955405;28;20054;-68
2023/05/08 08:26:18;;;;;;;10.40;8.77;;;;;;;20.26;60.13;102059.13;4944162;28;20193;-67
2023/05/08 08:28:43;;;;;;;11.50;7.80;;;;;;;20.26;59.98;102050.34;4955248;28;20043;-67
2023/05/08 08:31:08;;;;;;;11.00;8.80;;;;;;;20.26;60.05;102050.34;4944003;28;20269;-68
2023/05/08 08:33:33;;;;;;;9.13;8.05;;;;;;;20.26;59.79;102045.88;4954385;28;20738;-67
2023/05/08 08:35:59;;;;;;;10.50;8.80;;;;;;;20.29;59.94;102047.47;4955547;28;20031;-68
2023/05/08 08:38:24;;;;;;;13.13;8.88;;;;;;;20.27;59.88;102042.28;4950037;28;20031;-72
2023/05/08 08:40:49;;;;;;;11.48;8.98;;;;;;;20.30;60.12;102046.53;4959298;28;20042;-71
2023/05/08 08:43:15;;;;;;;9.68;8.18;;;;;;;20.30;59.92;102046.53;4958010;28;20028;-71
2023/05/08 08:45:40;;;;;;;9.13;8.15;;;;;;;20.27;59.99;102039.66;4952719;28;20085;-69
2023/05/08 08:48:10;;;;;;;10.48;8.40;;;;;;;20.29;60.04;102045.66;4943633;28;20089;-70
2023/05/08 08:50:41;;;;;;;9.40;7.95;;;;;;;20.30;60.03;102047.38;4950100;28;20034;-68
2023/05/08 08:53:11;;;;;;;9.68;7.95;;;;;;;20.30;59.58;102047.38;4962961;28;20046;-70
2023/05/08 08:55:42;;;;;;;9.57;7.75;;;;;;;20.23;59.62;102032.03;4962833;28;20038;-69
2023/05/08 08:58:25;;;;;;;9.90;7.63;;;;;;;20.31;59.63;102048.22;4955871;28;20093;-68
2023/05/08 09:00:50;;;;;;;13.20;8.20;;;;;;;20.29;59.78;102045.66;4951492;28;20661;-70
2023/05/08 09:03:16;;;;;;;11.25;7.88;;;;;;;20.30;59.58;102047.38;4946993;28;20483;-69
2023/05/08 09:05:43;;;;;;;11.35;9.23;;;;;;;20.30;60.00;102055.31;4980966;28;20451;-68
2023/05/08 09:08:09;;;;;;;9.07;8.18;;;;;;;20.30;59.83;102052.66;4961040;28;20034;-68
2023/05/08 09:10:35;;;;;;;12.65;8.93;;;;;;;20.32;60.04;102051.72;4944587;28;20043;-68
2023/05/08 09:13:02;;;;;;;8.63;7.55;;;;;;;20.32;59.92;102049.06;4957811;28;20050;-67
2023/05/08 09:15:27;;;;;;;8.95;7.93;;;;;;;20.36;59.95;102053.19;4950748;28;20030;-68
2023/05/08 09:17:53;;;;;;;9.50;8.13;;;;;;;20.36;60.20;102050.53;4955865;28;20377;-69
2023/05/08 09:20:18;;;;;;;10.20;7.82;;;;;;;20.39;59.82;102055.59;4962198;28;20891;-71
2023/05/08 09:22:44;;;;;;;10.55;7.32;;;;;;;20.39;59.72;102056.44;4947563;28;20043;-69
2023/05/08 09:25:10;;;;;;;11.52;8.05;;;;;;;20.41;59.65;102051.91;4960829;28;20047;-69
2023/05/08 09:27:35;;;;;;;9.18;8.05;;;;;;;20.40;59.60;102046.72;4951242;28;20089;-67
2023/05/08 09:30:13;;;;;;;11.27;7.47;;;;;;;20.37;59.60;102045.13;4954699;28;20446;-70
2023/05/08 09:32:40;;;;;;;8.65;7.72;;;;;;;20.33;59.75;102040.16;4988144;28;20757;-69
2023/05/08 09:35:14;;;;;;;8.95;7.40;;;;;;;20.36;59.72;102053.19;4953558;28;20401;-69
2023/05/08 09:37:42;;;;;;;9.02;7.40;;;;;;;20.34;59.33;102050.63;4948570;28;20041;-68
2023/05/08 09:40:12;;;;;;;8.93;7.78;;;;;;;20.38;59.80;102051.28;4955397;28;20031;-69
2023/05/08 09:42:37;;;;;;;8.57;7.55;;;;;;;20.37;59.57;102055.72;4955739;28;20039;-69
2023/05/08 09:45:03;;;;;;;12.68;8.32;;;;;;;20.34;59.71;102050.63;4952039;28;20030;-71
2023/05/08 09:47:28;;;;;;;9.95;8.32;;;;;;;20.34;59.64;102048.00;4953363;28;20035;-71
2023/05/08 09:49:57;;;;;;;10.18;7.72;;;;;;;20.37;59.50;102054.88;4950768;28;20400;-71
2023/05/08 09:52:23;;;;;;;10.00;8.35;;;;;;;20.37;59.63;102052.22;4954847;28;20046;-71
2023/05/08 09:55:05;;;;;;;9.80;8.80;;;;;;;20.33;59.50;102045.44;4951646;28;20369;-70
2023/05/08 09:57:32;;;;;;;11.80;8.85;;;;;;;20.34;59.59;102047.16;4952932;28;20510;-69
2023/05/08 10:00:05;;;;;;;12.27;8.82;;;;;;;20.37;59.88;102062.81;4949423;28;20087;-69
2023/05/08 10:02:31;;;;;;;10.32;8.35;;;;;;;20.37;59.58;102054.88;4955053;28;20117;-68
2023/05/08 10:04:56;;;;;;;11.35;8.55;;;;;;;20.36;59.67;102056.69;4947404;28;20126;-69
2023/05/08 10:07:33;;;;;;;10.02;8.40;;;;;;;20.36;59.87;102058.47;4948226;28;20125;-70
2023/05/08 10:10:00;;;;;;;10.82;9.20;;;;;;;20.36;59.63;102056.69;4948668;28;20027;-67
2023/05/08 10:12:27;;;;;;;11.55;8.75;;;;;;;20.39;59.69;102056.44;4983666;28;20059;-66
2023/05/08 10:14:52;;;;;;;12.32;10.07;;;;;;;20.37;59.44;102055.72;4949731;28;20031;-67
2023/05/08 10:17:25;;;;;;;12.32;10.07;;;;;;;20.41;59.47;102058.97;4961641;28;20031;-67
2023/05/08 10:19:57;;;;;;;12.30;10.17;;;;;;;20.46;59.44;102060.34;4952569;28;20035;-66
2023/05/08 10:22:24;;;;;;;10.00;7.97;;;;;;;20.58;58.92;102055.13;4952099;28;20438;-69
2023/05/08 10:24:55;;;;;;;13.27;8.30;;;;;;;20.63;58.93;102061.78;4956601;28;20063;-68
2023/05/08 10:27:30;;;;;;;10.25;7.57;;;;;;;20.72;58.40;102062.94;4957903;28;20031;-71
2023/05/08 10:30:03;;;;;;;8.90;7.43;;;;;;;20.73;58.20;102054.03;4952090;28;20035;-69
2023/05/08 10:32:36;;;;;;;12.52;8.65;;;;;;;20.77;58.19;102065.25;4950944;28;20521;-70
2023/05/08 10:35:02;;;;;;;13.17;8.37;;;;;;;20.76;58.18;102060.91;4949323;28;20038;-71
2023/05/08 10:37:29;;;;;;;14.30;8.60;;;;;;;20.73;58.21;102061.13;4946630;28;20036;-69
2023/05/08 10:39:56;;;;;;;13.27;8.55;;;;;;;20.71;58.40;102061.25;4946136;28;20039;-68
2023/05/08 10:42:22;;;;;;;15.88;8.60;;;;;;;20.62;58.64;102044.19;4960287;28;20503;-68
2023/05/08 10:44:48;;;;;;;12.93;8.48;;;;;;;20.71;58.16;102058.63;4956633;28;20121;-70
2023/05/08 10:47:35;;;;;;;9.77;7.97;;;;;;;20.71;58.08;102061.25;4961172;28;20530;-69
2023/05/08 10:50:04;;;;;;;11.23;8.65;;;;;;;20.77;58.04;102052.84;4957421;28;20035;-69
2023/05/08 10:52:46;;;;;;;13.40;8.82;;;;;;;20.75;58.32;102060.06;4951542;28;20057;-68
2023/05/08 10:55:27;;;;;;;13.93;8.88;;;;;;;20.74;58.12;102055.72;4949688;28;20066;-69
2023/05/08 10:58:10;;;;;;;11.98;8.18;;;;;;;20.75;58.12;102054.75;4952507;28;20031;-70
2023/05/08 11:00:50;;;;;;;13.43;8.50;;;;;;;20.75;58.30;102051.28;4948327;28;20063;-69
2023/05/08 11:03:17;;;;;;;11.23;8.98;;;;;;;20.77;58.04;102052.00;4951948;28;20046;-70
2023/05/08 11:05:46;;;;;;;9.82;8.20;;;;;;;20.76;58.28;102045.88;4951103;28;20045;-68
2023/05/08 11:08:17;;;;;;;11.02;8.57;;;;;;;20.77;58.11;102044.06;4950139;28;20039;-68
2023/05/08 11:10:47;;;;;;;9.75;7.90;;;;;;;20.79;57.93;102043.00;4954758;28;20043;-70
2023/05/08 11:13:13;;;;;;;11.38;8.38;;;;;;;20.83;57.93;102040.97;4958472;28;20035;-66
2023/05/08 11:15:40;;;;;;;13.13;9.50;;;;;;;20.94;57.70;102042.81;4949171;28;20038;-66
2023/05/08 11:18:10;;;;;;;17.70;10.65;;;;;;;21.00;57.65;102039.72;4953407;28;20047;-67
2023/05/08 11:20:39;;;;;;;16.33;10.52;;;;;;;20.95;58.09;102036.53;4943899;28;20043;-69
2023/05/08 11:23:27;;;;;;;11.30;8.93;;;;;;;20.89;57.79;102035.22;4952758;28;20031;-70
2023/05/08 11:26:04;;;;;;;12.02;9.07;;;;;;;20.88;57.74;102030.03;4954118;28;20057;-69
2023/05/08 11:28:37;;;;;;;10.43;9.25;;;;;;;20.88;57.94;102030.03;4947490;28;20059;-68
2023/05/08 11:31:04;;;;;;;10.93;9.45;;;;;;;20.89;58.00;102023.78;4957418;28;20082;-69